sensor_id;sensor_type;location;lat;lon;timestamp;pressure;altitude;pressure_sealevel;temperature;humidity
81997;BME280;71500;50.806;8.774;2024-03-02T00:00:24;98543.85;;;5.95;72.43
81997;BME280;71500;50.806;8.774;2024-03-02T00:03:17;98538.21;;;5.92;72.29
81997;BME280;71500;50.806;8.774;2024-03-02T00:05:52;98537.50;;;5.91;72.26
81997;BME280;71500;50.806;8.774;2024-03-02T00:08:25;98526.95;;;5.87;72.20
81997;BME280;71500;50.806;8.774;2024-03-02T00:11:00;98530.20;;;5.84;72.17
81997;BME280;71500;50.806;8.774;2024-03-02T00:13:33;98525.23;;;5.80;72.22
81997;BME280;71500;50.806;8.774;2024-03-02T00:16:06;98525.77;;;5.76;72.38
81997;BME280;71500;50.806;8.774;2024-03-02T00:18:38;98527.30;;;5.73;72.50
81997;BME280;71500;50.806;8.774;2024-03-02T00:21:09;98525.92;;;5.75;72.42
81997;BME280;71500;50.806;8.774;2024-03-02T00:23:41;98527.29;;;5.75;72.51
81997;BME280;71500;50.806;8.774;2024-03-02T00:26:13;98526.35;;;5.76;72.45
81997;BME280;71500;50.806;8.774;2024-03-02T00:28:46;98530.77;;;5.77;72.51
81997;BME280;71500;50.806;8.774;2024-03-02T00:31:21;98530.08;;;5.79;72.48
81997;BME280;71500;50.806;8.774;2024-03-02T00:33:53;98529.98;;;5.80;72.48
81997;BME280;71500;50.806;8.774;2024-03-02T00:36:26;98524.38;;;5.78;72.55
81997;BME280;71500;50.806;8.774;2024-03-02T00:38:57;98523.27;;;5.73;72.48
81997;BME280;71500;50.806;8.774;2024-03-02T00:41:30;98521.25;;;5.66;72.49
81997;BME280;71500;50.806;8.774;2024-03-02T00:44:03;98519.78;;;5.63;72.70
81997;BME280;71500;50.806;8.774;2024-03-02T00:46:36;98521.61;;;5.62;72.63
81997;BME280;71500;50.806;8.774;2024-03-02T00:49:16;98513.23;;;5.61;72.70
81997;BME280;71500;50.806;8.774;2024-03-02T00:51:52;98512.77;;;5.60;72.68
81997;BME280;71500;50.806;8.774;2024-03-02T00:54:23;98503.06;;;5.59;72.72
81997;BME280;71500;50.806;8.774;2024-03-02T00:56:55;98505.34;;;5.57;72.66
81997;BME280;71500;50.806;8.774;2024-03-02T00:59:29;98505.41;;;5.54;72.75
81997;BME280;71500;50.806;8.774;2024-03-02T01:02:02;98505.91;;;5.52;72.76
81997;BME280;71500;50.806;8.774;2024-03-02T01:04:33;98509.29;;;5.48;72.92
81997;BME280;71500;50.806;8.774;2024-03-02T01:07:05;98511.26;;;5.46;72.94
81997;BME280;71500;50.806;8.774;2024-03-02T01:09:36;98503.29;;;5.42;72.94
81997;BME280;71500;50.806;8.774;2024-03-02T01:12:08;98498.22;;;5.40;72.99
81997;BME280;71500;50.806;8.774;2024-03-02T01:14:39;98494.41;;;5.37;73.03
81997;BME280;71500;50.806;8.774;2024-03-02T01:17:11;98489.30;;;5.39;72.84
81997;BME280;71500;50.806;8.774;2024-03-02T01:19:44;98487.71;;;5.39;72.79
81997;BME280;71500;50.806;8.774;2024-03-02T01:22:14;98482.99;;;5.39;72.70
81997;BME280;71500;50.806;8.774;2024-03-02T01:24:45;98482.23;;;5.40;72.73
81997;BME280;71500;50.806;8.774;2024-03-02T01:27:16;98480.95;;;5.40;72.70
81997;BME280;71500;50.806;8.774;2024-03-02T01:29:49;98481.92;;;5.41;72.60
81997;BME280;71500;50.806;8.774;2024-03-02T01:32:20;98483.58;;;5.42;72.70
81997;BME280;71500;50.806;8.774;2024-03-02T01:34:51;98485.61;;;5.43;72.71
81997;BME280;71500;50.806;8.774;2024-03-02T01:37:22;98486.10;;;5.44;72.79
81997;BME280;71500;50.806;8.774;2024-03-02T01:39:54;98492.52;;;5.45;72.75
81997;BME280;71500;50.806;8.774;2024-03-02T01:42:25;98497.16;;;5.44;72.65
81997;BME280;71500;50.806;8.774;2024-03-02T01:44:57;98498.16;;;5.42;72.52
81997;BME280;71500;50.806;8.774;2024-03-02T01:47:28;98499.67;;;5.41;72.61
81997;BME280;71500;50.806;8.774;2024-03-02T01:50:00;98498.69;;;5.38;72.64
81997;BME280;71500;50.806;8.774;2024-03-02T01:52:32;98504.94;;;5.35;72.61
81997;BME280;71500;50.806;8.774;2024-03-02T01:55:04;98502.52;;;5.25;72.61
81997;BME280;71500;50.806;8.774;2024-03-02T01:57:36;98500.59;;;5.15;72.80
81997;BME280;71500;50.806;8.774;2024-03-02T02:00:09;98505.40;;;5.10;72.98
81997;BME280;71500;50.806;8.774;2024-03-02T02:02:41;98501.08;;;5.07;73.15
81997;BME280;71500;50.806;8.774;2024-03-02T02:05:12;98491.67;;;5.04;73.17
81997;BME280;71500;50.806;8.774;2024-03-02T02:07:44;98493.85;;;5.03;73.26
81997;BME280;71500;50.806;8.774;2024-03-02T02:10:15;98482.71;;;5.00;73.23
81997;BME280;71500;50.806;8.774;2024-03-02T02:12:47;98480.42;;;4.98;73.48
81997;BME280;71500;50.806;8.774;2024-03-02T02:15:26;98475.98;;;4.96;73.47
81997;BME280;71500;50.806;8.774;2024-03-02T02:17:59;98471.33;;;4.99;73.54
81997;BME280;71500;50.806;8.774;2024-03-02T02:20:31;98472.06;;;5.01;73.62
81997;BME280;71500;50.806;8.774;2024-03-02T02:23:04;98472.55;;;5.04;73.74
81997;BME280;71500;50.806;8.774;2024-03-02T02:25:38;98468.88;;;5.07;73.75
81997;BME280;71500;50.806;8.774;2024-03-02T02:28:10;98460.84;;;5.11;73.61
81997;BME280;71500;50.806;8.774;2024-03-02T02:30:41;98461.14;;;5.15;73.50
81997;BME280;71500;50.806;8.774;2024-03-02T02:33:13;98456.02;;;5.17;73.40
81997;BME280;71500;50.806;8.774;2024-03-02T02:35:45;98450.36;;;5.16;73.10
81997;BME280;71500;50.806;8.774;2024-03-02T02:38:16;98444.06;;;5.09;73.06
81997;BME280;71500;50.806;8.774;2024-03-02T02:40:50;98438.69;;;5.08;73.03
81997;BME280;71500;50.806;8.774;2024-03-02T02:43:21;98438.00;;;5.08;73.03
81997;BME280;71500;50.806;8.774;2024-03-02T02:45:53;98436.27;;;5.08;72.88
81997;BME280;71500;50.806;8.774;2024-03-02T02:48:24;98431.36;;;5.06;72.87
81997;BME280;71500;50.806;8.774;2024-03-02T02:50:56;98430.33;;;5.04;72.76
81997;BME280;71500;50.806;8.774;2024-03-02T02:53:28;98432.81;;;5.01;72.74
81997;BME280;71500;50.806;8.774;2024-03-02T02:56:00;98424.85;;;4.98;72.79
81997;BME280;71500;50.806;8.774;2024-03-02T02:58:32;98426.44;;;4.94;72.76
81997;BME280;71500;50.806;8.774;2024-03-02T03:01:04;98423.63;;;4.90;72.70
81997;BME280;71500;50.806;8.774;2024-03-02T03:03:35;98423.89;;;4.85;72.64
81997;BME280;71500;50.806;8.774;2024-03-02T03:06:06;98423.23;;;4.81;72.81
81997;BME280;71500;50.806;8.774;2024-03-02T03:08:38;98426.08;;;4.76;72.67
81997;BME280;71500;50.806;8.774;2024-03-02T03:11:09;98425.61;;;4.71;72.90
81997;BME280;71500;50.806;8.774;2024-03-02T03:13:41;98424.67;;;4.68;73.00
81997;BME280;71500;50.806;8.774;2024-03-02T03:16:12;98415.13;;;4.63;73.15
81997;BME280;71500;50.806;8.774;2024-03-02T03:18:44;98421.36;;;4.60;72.99
81997;BME280;71500;50.806;8.774;2024-03-02T03:21:15;98424.14;;;4.62;73.00
81997;BME280;71500;50.806;8.774;2024-03-02T03:23:47;98416.41;;;4.60;72.97
81997;BME280;71500;50.806;8.774;2024-03-02T03:26:18;98420.42;;;4.60;73.10
81997;BME280;71500;50.806;8.774;2024-03-02T03:28:49;98422.29;;;4.61;73.04
81997;BME280;71500;50.806;8.774;2024-03-02T03:31:20;98421.46;;;4.63;73.06
81997;BME280;71500;50.806;8.774;2024-03-02T03:33:52;98420.68;;;4.65;73.00
81997;BME280;71500;50.806;8.774;2024-03-02T03:36:23;98417.44;;;4.66;72.91
81997;BME280;71500;50.806;8.774;2024-03-02T03:38:54;98418.29;;;4.67;72.95
81997;BME280;71500;50.806;8.774;2024-03-02T03:41:26;98420.55;;;4.67;72.85
81997;BME280;71500;50.806;8.774;2024-03-02T03:43:57;98419.20;;;4.66;72.74
81997;BME280;71500;50.806;8.774;2024-03-02T03:46:28;98422.45;;;4.63;72.63
81997;BME280;71500;50.806;8.774;2024-03-02T03:49:00;98422.16;;;4.61;72.69
81997;BME280;71500;50.806;8.774;2024-03-02T03:51:31;98419.96;;;4.58;72.71
81997;BME280;71500;50.806;8.774;2024-03-02T03:54:03;98417.92;;;4.55;72.80
81997;BME280;71500;50.806;8.774;2024-03-02T03:56:34;98417.80;;;4.52;72.96
81997;BME280;71500;50.806;8.774;2024-03-02T03:59:05;98418.50;;;4.48;72.79
81997;BME280;71500;50.806;8.774;2024-03-02T04:01:37;98413.66;;;4.43;72.92
81997;BME280;71500;50.806;8.774;2024-03-02T04:04:08;98422.04;;;4.42;72.93
81997;BME280;71500;50.806;8.774;2024-03-02T04:06:39;98419.60;;;4.38;72.88
81997;BME280;71500;50.806;8.774;2024-03-02T04:09:11;98421.02;;;4.33;72.96
81997;BME280;71500;50.806;8.774;2024-03-02T04:11:42;98422.73;;;4.30;72.84
81997;BME280;71500;50.806;8.774;2024-03-02T04:14:14;98416.66;;;4.25;72.98
81997;BME280;71500;50.806;8.774;2024-03-02T04:16:45;98416.14;;;4.20;73.13
81997;BME280;71500;50.806;8.774;2024-03-02T04:19:16;98417.35;;;4.16;73.30
81997;BME280;71500;50.806;8.774;2024-03-02T04:21:48;98420.89;;;4.14;73.20
81997;BME280;71500;50.806;8.774;2024-03-02T04:24:19;98421.36;;;4.17;73.17
81997;BME280;71500;50.806;8.774;2024-03-02T04:26:51;98423.16;;;4.18;73.26
81997;BME280;71500;50.806;8.774;2024-03-02T04:29:23;98427.16;;;4.21;73.30
81997;BME280;71500;50.806;8.774;2024-03-02T04:31:54;98427.95;;;4.24;73.16
81997;BME280;71500;50.806;8.774;2024-03-02T04:34:25;98433.67;;;4.27;73.12
81997;BME280;71500;50.806;8.774;2024-03-02T04:36:56;98435.39;;;4.30;73.13
81997;BME280;71500;50.806;8.774;2024-03-02T04:39:28;98437.20;;;4.31;72.93
81997;BME280;71500;50.806;8.774;2024-03-02T04:41:59;98439.37;;;4.32;72.74
81997;BME280;71500;50.806;8.774;2024-03-02T04:44:30;98436.19;;;4.33;72.77
81997;BME280;71500;50.806;8.774;2024-03-02T04:47:02;98433.36;;;4.33;72.64
81997;BME280;71500;50.806;8.774;2024-03-02T04:49:33;98433.97;;;4.32;72.58
81997;BME280;71500;50.806;8.774;2024-03-02T04:52:05;98425.86;;;4.30;72.44
81997;BME280;71500;50.806;8.774;2024-03-02T04:54:36;98426.47;;;4.27;72.52
81997;BME280;71500;50.806;8.774;2024-03-02T04:57:28;98432.35;;;4.24;72.44
81997;BME280;71500;50.806;8.774;2024-03-02T04:59:59;98433.70;;;4.20;72.51
81997;BME280;71500;50.806;8.774;2024-03-02T05:02:31;98437.20;;;4.16;72.73
81997;BME280;71500;50.806;8.774;2024-03-02T05:05:02;98437.11;;;4.13;72.79
81997;BME280;71500;50.806;8.774;2024-03-02T05:07:34;98439.94;;;4.09;72.94
81997;BME280;71500;50.806;8.774;2024-03-02T05:10:06;98444.95;;;4.06;73.00
81997;BME280;71500;50.806;8.774;2024-03-02T05:12:38;98450.00;;;4.02;73.08
81997;BME280;71500;50.806;8.774;2024-03-02T05:15:27;98453.61;;;3.99;73.19
81997;BME280;71500;50.806;8.774;2024-03-02T05:17:58;98447.27;;;3.95;73.20
81997;BME280;71500;50.806;8.774;2024-03-02T05:20:33;98447.04;;;3.91;73.23
81997;BME280;71500;50.806;8.774;2024-03-02T05:23:04;98449.82;;;3.87;73.27
81997;BME280;71500;50.806;8.774;2024-03-02T05:25:35;98451.42;;;3.85;73.37
81997;BME280;71500;50.806;8.774;2024-03-02T05:28:07;98455.33;;;3.87;73.25
81997;BME280;71500;50.806;8.774;2024-03-02T05:30:39;98456.98;;;3.88;73.29
81997;BME280;71500;50.806;8.774;2024-03-02T05:33:10;98460.79;;;3.89;73.29
81997;BME280;71500;50.806;8.774;2024-03-02T05:35:41;98458.01;;;3.90;73.29
81997;BME280;71500;50.806;8.774;2024-03-02T05:38:15;98459.73;;;3.93;73.38
81997;BME280;71500;50.806;8.774;2024-03-02T05:40:46;98465.93;;;3.96;73.41
81997;BME280;71500;50.806;8.774;2024-03-02T05:43:17;98467.02;;;3.98;73.34
81997;BME280;71500;50.806;8.774;2024-03-02T05:45:50;98469.95;;;3.99;73.27
81997;BME280;71500;50.806;8.774;2024-03-02T05:48:21;98471.34;;;4.01;73.23
81997;BME280;71500;50.806;8.774;2024-03-02T05:50:52;98475.33;;;4.02;73.17
81997;BME280;71500;50.806;8.774;2024-03-02T05:53:24;98472.02;;;4.01;73.20
81997;BME280;71500;50.806;8.774;2024-03-02T05:55:55;98475.55;;;3.99;73.21
81997;BME280;71500;50.806;8.774;2024-03-02T05:58:26;98471.29;;;3.97;73.23
81997;BME280;71500;50.806;8.774;2024-03-02T06:01:08;98482.65;;;3.94;73.27
81997;BME280;71500;50.806;8.774;2024-03-02T06:03:39;98478.95;;;3.90;73.14
81997;BME280;71500;50.806;8.774;2024-03-02T06:06:11;98484.29;;;3.87;73.26
81997;BME280;71500;50.806;8.774;2024-03-02T06:08:42;98494.52;;;3.84;73.33
81997;BME280;71500;50.806;8.774;2024-03-02T06:11:13;98493.53;;;3.82;73.54
81997;BME280;71500;50.806;8.774;2024-03-02T06:13:44;98497.31;;;3.80;73.60
81997;BME280;71500;50.806;8.774;2024-03-02T06:16:16;98498.36;;;3.78;73.71
81997;BME280;71500;50.806;8.774;2024-03-02T06:18:47;98504.69;;;3.78;73.80
81997;BME280;71500;50.806;8.774;2024-03-02T06:21:18;98505.31;;;3.77;73.88
81997;BME280;71500;50.806;8.774;2024-03-02T06:23:50;98500.36;;;3.75;73.91
81997;BME280;71500;50.806;8.774;2024-03-02T06:26:21;98503.20;;;3.75;73.97
81997;BME280;71500;50.806;8.774;2024-03-02T06:28:55;98500.07;;;3.79;73.95
81997;BME280;71500;50.806;8.774;2024-03-02T06:31:26;98504.19;;;3.82;73.95
81997;BME280;71500;50.806;8.774;2024-03-02T06:33:57;98504.81;;;3.85;73.84
81997;BME280;71500;50.806;8.774;2024-03-02T06:36:29;98506.08;;;3.89;73.88
81997;BME280;71500;50.806;8.774;2024-03-02T06:39:00;98505.52;;;3.93;73.78
81997;BME280;71500;50.806;8.774;2024-03-02T06:41:32;98507.90;;;3.98;73.69
81997;BME280;71500;50.806;8.774;2024-03-02T06:44:03;98508.52;;;4.02;73.65
81997;BME280;71500;50.806;8.774;2024-03-02T06:46:35;98514.20;;;4.05;73.58
81997;BME280;71500;50.806;8.774;2024-03-02T06:49:07;98513.16;;;4.07;73.59
81997;BME280;71500;50.806;8.774;2024-03-02T06:51:40;98517.11;;;4.08;73.49
81997;BME280;71500;50.806;8.774;2024-03-02T06:54:12;98512.94;;;4.09;73.61
81997;BME280;71500;50.806;8.774;2024-03-02T06:56:43;98517.41;;;4.11;73.61
81997;BME280;71500;50.806;8.774;2024-03-02T06:59:15;98519.80;;;4.11;73.61
81997;BME280;71500;50.806;8.774;2024-03-02T07:01:46;98516.57;;;4.13;73.67
81997;BME280;71500;50.806;8.774;2024-03-02T07:04:18;98520.54;;;4.13;73.71
81997;BME280;71500;50.806;8.774;2024-03-02T07:06:49;98524.87;;;4.14;73.65
81997;BME280;71500;50.806;8.774;2024-03-02T07:09:21;98527.87;;;4.14;73.72
81997;BME280;71500;50.806;8.774;2024-03-02T07:11:53;98533.48;;;4.14;73.69
81997;BME280;71500;50.806;8.774;2024-03-02T07:14:24;98533.11;;;4.14;73.66
81997;BME280;71500;50.806;8.774;2024-03-02T07:17:14;98534.29;;;4.15;73.70
81997;BME280;71500;50.806;8.774;2024-03-02T07:19:45;98529.11;;;4.14;73.72
81997;BME280;71500;50.806;8.774;2024-03-02T07:22:16;98531.17;;;4.12;73.73
81997;BME280;71500;50.806;8.774;2024-03-02T07:24:48;98536.84;;;4.12;73.74
81997;BME280;71500;50.806;8.774;2024-03-02T07:27:20;98537.52;;;4.10;73.83
81997;BME280;71500;50.806;8.774;2024-03-02T07:29:51;98537.11;;;4.10;73.96
81997;BME280;71500;50.806;8.774;2024-03-02T07:32:22;98541.23;;;4.16;73.93
81997;BME280;71500;50.806;8.774;2024-03-02T07:34:54;98541.65;;;4.19;73.83
81997;BME280;71500;50.806;8.774;2024-03-02T07:37:26;98541.41;;;4.24;73.98
81997;BME280;71500;50.806;8.774;2024-03-02T07:39:57;98539.31;;;4.31;73.99
81997;BME280;71500;50.806;8.774;2024-03-02T07:42:29;98536.77;;;4.38;74.01
81997;BME280;71500;50.806;8.774;2024-03-02T07:45:01;98534.36;;;4.46;73.98
81997;BME280;71500;50.806;8.774;2024-03-02T07:47:32;98537.77;;;4.53;74.04
81997;BME280;71500;50.806;8.774;2024-03-02T07:50:04;98537.58;;;4.61;74.02
81997;BME280;71500;50.806;8.774;2024-03-02T07:52:37;98539.67;;;4.68;74.08
81997;BME280;71500;50.806;8.774;2024-03-02T07:55:09;98539.25;;;4.75;74.11
81997;BME280;71500;50.806;8.774;2024-03-02T07:57:41;98542.11;;;4.80;73.93
81997;BME280;71500;50.806;8.774;2024-03-02T08:00:14;98547.79;;;4.86;73.88
81997;BME280;71500;50.806;8.774;2024-03-02T08:02:46;98551.98;;;4.90;73.94
81997;BME280;71500;50.806;8.774;2024-03-02T08:05:17;98558.77;;;4.95;73.86
81997;BME280;71500;50.806;8.774;2024-03-02T08:07:49;98560.89;;;4.99;73.73
81997;BME280;71500;50.806;8.774;2024-03-02T08:10:22;98563.36;;;5.03;73.85
81997;BME280;71500;50.806;8.774;2024-03-02T08:12:54;98563.32;;;5.07;73.82
81997;BME280;71500;50.806;8.774;2024-03-02T08:15:25;98560.38;;;5.11;73.85
81997;BME280;71500;50.806;8.774;2024-03-02T08:17:57;98560.77;;;5.15;73.87
81997;BME280;71500;50.806;8.774;2024-03-02T08:20:28;98556.71;;;5.19;73.91
81997;BME280;71500;50.806;8.774;2024-03-02T08:22:59;98558.05;;;5.21;73.90
81997;BME280;71500;50.806;8.774;2024-03-02T08:25:31;98559.44;;;5.24;73.98
81997;BME280;71500;50.806;8.774;2024-03-02T08:28:02;98565.46;;;5.27;73.95
81997;BME280;71500;50.806;8.774;2024-03-02T08:30:35;98564.52;;;5.33;74.07
81997;BME280;71500;50.806;8.774;2024-03-02T08:33:06;98569.81;;;5.42;73.93
81997;BME280;71500;50.806;8.774;2024-03-02T08:35:38;98564.58;;;5.52;73.85
81997;BME280;71500;50.806;8.774;2024-03-02T08:38:09;98565.73;;;5.62;73.86
81997;BME280;71500;50.806;8.774;2024-03-02T08:40:41;98562.67;;;5.73;73.83
81997;BME280;71500;50.806;8.774;2024-03-02T08:43:12;98561.73;;;5.82;73.83
81997;BME280;71500;50.806;8.774;2024-03-02T08:45:44;98568.77;;;5.95;73.81
81997;BME280;71500;50.806;8.774;2024-03-02T08:48:17;98563.60;;;6.06;73.73
81997;BME280;71500;50.806;8.774;2024-03-02T08:50:50;98561.08;;;6.16;73.78
81997;BME280;71500;50.806;8.774;2024-03-02T08:53:21;98564.45;;;6.24;73.63
81997;BME280;71500;50.806;8.774;2024-03-02T08:55:52;98574.45;;;6.30;73.61
81997;BME280;71500;50.806;8.774;2024-03-02T08:58:28;98571.42;;;6.36;73.59
81997;BME280;71500;50.806;8.774;2024-03-02T09:01:00;98565.39;;;6.42;73.61
81997;BME280;71500;50.806;8.774;2024-03-02T09:03:32;98571.41;;;6.48;73.56
81997;BME280;71500;50.806;8.774;2024-03-02T09:06:05;98583.02;;;6.54;73.67
81997;BME280;71500;50.806;8.774;2024-03-02T09:08:36;98581.27;;;6.59;73.55
81997;BME280;71500;50.806;8.774;2024-03-02T09:11:08;98581.88;;;6.64;73.65
81997;BME280;71500;50.806;8.774;2024-03-02T09:13:40;98586.89;;;6.69;73.63
81997;BME280;71500;50.806;8.774;2024-03-02T09:16:12;98584.85;;;6.74;73.50
81997;BME280;71500;50.806;8.774;2024-03-02T09:18:44;98586.19;;;6.80;73.54
81997;BME280;71500;50.806;8.774;2024-03-02T09:21:15;98583.80;;;6.87;73.47
81997;BME280;71500;50.806;8.774;2024-03-02T09:23:47;98582.80;;;6.94;73.46
81997;BME280;71500;50.806;8.774;2024-03-02T09:26:18;98580.89;;;7.01;73.39
81997;BME280;71500;50.806;8.774;2024-03-02T09:28:51;98580.80;;;7.10;73.47
81997;BME280;71500;50.806;8.774;2024-03-02T09:31:22;98570.23;;;7.22;73.19
81997;BME280;71500;50.806;8.774;2024-03-02T09:33:54;98567.36;;;7.34;73.25
81997;BME280;71500;50.806;8.774;2024-03-02T09:36:25;98569.94;;;7.44;73.11
81997;BME280;71500;50.806;8.774;2024-03-02T09:38:56;98565.61;;;7.56;73.14
81997;BME280;71500;50.806;8.774;2024-03-02T09:41:28;98565.31;;;7.68;72.96
81997;BME280;71500;50.806;8.774;2024-03-02T09:44:00;98560.42;;;7.80;72.69
81997;BME280;71500;50.806;8.774;2024-03-02T09:46:32;98555.70;;;7.92;72.41
81997;BME280;71500;50.806;8.774;2024-03-02T09:49:03;98555.85;;;8.03;72.16
81997;BME280;71500;50.806;8.774;2024-03-02T09:51:35;98555.61;;;8.14;71.80
81997;BME280;71500;50.806;8.774;2024-03-02T09:54:09;98555.48;;;8.23;71.63
81997;BME280;71500;50.806;8.774;2024-03-02T09:56:51;98552.54;;;8.33;71.36
81997;BME280;71500;50.806;8.774;2024-03-02T09:59:23;98551.79;;;8.41;71.19
81997;BME280;71500;50.806;8.774;2024-03-02T10:01:59;98551.34;;;8.49;71.31
81997;BME280;71500;50.806;8.774;2024-03-02T10:04:31;98546.85;;;8.56;71.11
81997;BME280;71500;50.806;8.774;2024-03-02T10:07:13;98547.17;;;8.62;70.76
81997;BME280;71500;50.806;8.774;2024-03-02T10:09:46;98546.98;;;8.67;70.60
81997;BME280;71500;50.806;8.774;2024-03-02T10:12:17;98544.73;;;8.74;70.42
81997;BME280;71500;50.806;8.774;2024-03-02T10:14:49;98549.04;;;8.80;70.43
81997;BME280;71500;50.806;8.774;2024-03-02T10:17:33;98544.64;;;8.85;70.62
81997;BME280;71500;50.806;8.774;2024-03-02T10:20:25;98540.10;;;8.90;69.95
81997;BME280;71500;50.806;8.774;2024-03-02T10:23:11;98541.60;;;8.97;70.09
81997;BME280;71500;50.806;8.774;2024-03-02T10:25:43;98543.36;;;9.06;69.63
81997;BME280;71500;50.806;8.774;2024-03-02T10:28:27;98539.20;;;9.15;69.73
81997;BME280;71500;50.806;8.774;2024-03-02T10:30:59;98540.88;;;9.23;69.86
81997;BME280;71500;50.806;8.774;2024-03-02T10:33:30;98539.14;;;9.31;69.34
81997;BME280;71500;50.806;8.774;2024-03-02T10:36:03;98538.14;;;9.39;69.34
81997;BME280;71500;50.806;8.774;2024-03-02T10:38:35;98544.49;;;9.48;68.56
81997;BME280;71500;50.806;8.774;2024-03-02T10:41:09;98540.75;;;9.55;68.10
81997;BME280;71500;50.806;8.774;2024-03-02T10:43:40;98537.40;;;9.62;68.65
81997;BME280;71500;50.806;8.774;2024-03-02T10:46:13;98537.28;;;9.68;68.81
81997;BME280;71500;50.806;8.774;2024-03-02T10:48:47;98544.21;;;9.74;69.13
81997;BME280;71500;50.806;8.774;2024-03-02T10:51:19;98539.89;;;9.78;68.55
81997;BME280;71500;50.806;8.774;2024-03-02T10:53:51;98541.96;;;9.83;68.33
81997;BME280;71500;50.806;8.774;2024-03-02T10:56:27;98547.23;;;9.89;67.71
81997;BME280;71500;50.806;8.774;2024-03-02T10:59:03;98543.53;;;9.94;67.49
81997;BME280;71500;50.806;8.774;2024-03-02T11:01:39;98542.82;;;10.00;67.25
81997;BME280;71500;50.806;8.774;2024-03-02T11:04:14;98539.30;;;10.08;66.74
81997;BME280;71500;50.806;8.774;2024-03-02T11:06:49;98533.02;;;10.16;65.95
81997;BME280;71500;50.806;8.774;2024-03-02T11:09:23;98530.02;;;10.22;66.26
81997;BME280;71500;50.806;8.774;2024-03-02T11:12:03;98522.77;;;10.29;65.86
81997;BME280;71500;50.806;8.774;2024-03-02T11:14:35;98523.34;;;10.35;65.51
81997;BME280;71500;50.806;8.774;2024-03-02T11:17:09;98521.85;;;10.40;65.46
81997;BME280;71500;50.806;8.774;2024-03-02T11:19:42;98520.63;;;10.47;64.41
81997;BME280;71500;50.806;8.774;2024-03-02T11:22:14;98521.36;;;10.54;63.75
81997;BME280;71500;50.806;8.774;2024-03-02T11:24:51;98516.84;;;10.62;63.34
81997;BME280;71500;50.806;8.774;2024-03-02T11:33:28;98508.11;;;10.81;61.71
81997;BME280;71500;50.806;8.774;2024-03-02T11:36:02;98505.41;;;10.86;61.50
81997;BME280;71500;50.806;8.774;2024-03-02T11:38:34;98503.21;;;10.92;61.57
81997;BME280;71500;50.806;8.774;2024-03-02T11:41:08;98498.20;;;10.97;61.45
81997;BME280;71500;50.806;8.774;2024-03-02T11:43:43;98490.96;;;11.01;61.22
81997;BME280;71500;50.806;8.774;2024-03-02T11:46:16;98492.27;;;11.05;61.51
81997;BME280;71500;50.806;8.774;2024-03-02T11:48:47;98494.39;;;11.09;60.57
81997;BME280;71500;50.806;8.774;2024-03-02T11:51:18;98495.54;;;11.11;60.57
81997;BME280;71500;50.806;8.774;2024-03-02T11:53:51;98497.77;;;11.13;60.22
81997;BME280;71500;50.806;8.774;2024-03-02T11:56:27;98493.84;;;11.15;60.10
81997;BME280;71500;50.806;8.774;2024-03-02T11:58:59;98493.98;;;11.19;60.24
81997;BME280;71500;50.806;8.774;2024-03-02T12:01:36;98492.27;;;11.23;60.63
81997;BME280;71500;50.806;8.774;2024-03-02T12:04:07;98490.42;;;11.26;61.17
81997;BME280;71500;50.806;8.774;2024-03-02T12:06:39;98488.92;;;11.30;60.98
81997;BME280;71500;50.806;8.774;2024-03-02T12:09:12;98484.36;;;11.32;61.22
81997;BME280;71500;50.806;8.774;2024-03-02T12:11:45;98478.36;;;11.34;61.48
81997;BME280;71500;50.806;8.774;2024-03-02T12:14:16;98473.84;;;11.33;61.10
81997;BME280;71500;50.806;8.774;2024-03-02T12:16:48;98473.23;;;11.34;60.87
81997;BME280;71500;50.806;8.774;2024-03-02T12:19:21;98471.16;;;11.34;60.44
81997;BME280;71500;50.806;8.774;2024-03-02T12:21:52;98465.76;;;11.35;61.53
81997;BME280;71500;50.806;8.774;2024-03-02T12:24:26;98467.13;;;11.37;61.59
81997;BME280;71500;50.806;8.774;2024-03-02T12:26:58;98466.08;;;11.40;61.46
81997;BME280;71500;50.806;8.774;2024-03-02T12:29:30;98464.06;;;11.44;61.61
81997;BME280;71500;50.806;8.774;2024-03-02T12:32:01;98462.07;;;11.49;61.12
81997;BME280;71500;50.806;8.774;2024-03-02T12:34:33;98465.15;;;11.55;61.13
81997;BME280;71500;50.806;8.774;2024-03-02T12:37:05;98461.02;;;11.61;61.74
81997;BME280;71500;50.806;8.774;2024-03-02T12:39:36;98459.39;;;11.67;62.55
81997;BME280;71500;50.806;8.774;2024-03-02T12:42:08;98456.57;;;11.71;61.37
81997;BME280;71500;50.806;8.774;2024-03-02T12:44:40;98455.48;;;11.76;60.70
81997;BME280;71500;50.806;8.774;2024-03-02T12:47:13;98453.34;;;11.82;60.85
81997;BME280;71500;50.806;8.774;2024-03-02T12:49:45;98450.86;;;11.86;61.10
81997;BME280;71500;50.806;8.774;2024-03-02T12:52:17;98451.41;;;11.89;60.47
81997;BME280;71500;50.806;8.774;2024-03-02T12:54:50;98448.69;;;11.93;60.23
81997;BME280;71500;50.806;8.774;2024-03-02T12:57:21;98447.97;;;11.99;59.67
81997;BME280;71500;50.806;8.774;2024-03-02T12:59:54;98442.23;;;12.05;59.94
81997;BME280;71500;50.806;8.774;2024-03-02T13:02:30;98436.63;;;12.09;60.18
81997;BME280;71500;50.806;8.774;2024-03-02T13:05:02;98432.35;;;12.11;59.26
81997;BME280;71500;50.806;8.774;2024-03-02T13:07:34;98428.50;;;12.13;59.65
81997;BME280;71500;50.806;8.774;2024-03-02T13:10:06;98427.48;;;12.14;59.74
81997;BME280;71500;50.806;8.774;2024-03-02T13:12:39;98421.92;;;12.18;59.59
81997;BME280;71500;50.806;8.774;2024-03-02T13:15:10;98417.36;;;12.22;59.77
81997;BME280;71500;50.806;8.774;2024-03-02T13:17:46;98416.98;;;12.28;59.61
81997;BME280;71500;50.806;8.774;2024-03-02T13:20:20;98410.98;;;12.33;59.04
81997;BME280;71500;50.806;8.774;2024-03-02T13:22:54;98410.24;;;12.38;58.83
81997;BME280;71500;50.806;8.774;2024-03-02T13:25:26;98402.76;;;12.40;58.12
81997;BME280;71500;50.806;8.774;2024-03-02T13:27:59;98402.29;;;12.43;58.20
81997;BME280;71500;50.806;8.774;2024-03-02T13:30:31;98398.19;;;12.46;58.49
81997;BME280;71500;50.806;8.774;2024-03-02T13:33:03;98397.87;;;12.49;58.13
81997;BME280;71500;50.806;8.774;2024-03-02T13:35:34;98396.07;;;12.52;57.36
81997;BME280;71500;50.806;8.774;2024-03-02T13:38:06;98396.40;;;12.56;56.58
81997;BME280;71500;50.806;8.774;2024-03-02T13:40:37;98399.73;;;12.61;56.58
81997;BME280;71500;50.806;8.774;2024-03-02T13:43:08;98401.04;;;12.63;56.21